Time;durP1;ratioP1;P1;durP2;ratioP2;P2;SDS_P1;SDS_P2;PMS_P1;PMS_P2;Temp;Humidity;BMP_temperature;BMP_pressure;BME280_temperature;BME280_humidity;BME280_pressure;Samples;Min_cycle;Max_cycle;Signal;HPM_P1;HPM_P2
2023/06/28 00:01:16;;;;;;;5.07;2.20;;;;;;;;;;5072347;28;20231;-53
2023/06/28 00:03:42;;;;;;;5.03;2.40;;;;;;;;;;5072546;28;20278;-53
2023/06/28 00:06:08;;;;;;;6.47;2.07;;;;;;;;;;5074114;28;20689;-53
2023/06/28 00:08:34;;;;;;;3.80;2.03;;;;;;;;;;5074294;28;20195;-52
2023/06/28 00:11:00;;;;;;;4.43;2.43;;;;;;;;;;5074194;28;20629;-54
2023/06/28 00:13:27;;;;;;;4.00;2.10;;;;;;;;;;5074266;28;20199;-54
2023/06/28 00:15:53;;;;;;;3.53;2.27;;;;;;;;;;5074058;28;20650;-52
2023/06/28 00:18:19;;;;;;;5.63;2.00;;;;;;;;;;5074111;28;20196;-52
2023/06/28 00:20:45;;;;;;;5.70;2.50;;;;;;;;;;5073676;28;20290;-52
2023/06/28 00:23:11;;;;;;;6.20;2.37;;;;;;;;;;5073684;28;20282;-51
2023/06/28 00:25:37;;;;;;;4.07;2.37;;;;;;;;;;5073380;28;20720;-53
2023/06/28 00:28:04;;;;;;;3.70;2.33;;;;;;;;;;5073618;28;20249;-51
2023/06/28 00:30:32;;;;;;;4.73;2.33;;;;;;;;;;5073562;28;20278;-50
2023/06/28 00:32:58;;;;;;;2.70;2.30;;;;;;;;;;5073371;28;20224;-51
2023/06/28 00:35:24;;;;;;;5.23;2.70;;;;;;;;;;5073564;28;20191;-51
2023/06/28 00:37:50;;;;;;;5.07;2.30;;;;;;;;;;5073472;28;20203;-51
2023/06/28 00:40:17;;;;;;;4.43;2.23;;;;;;;;;;5073382;28;20290;-51
2023/06/28 00:42:43;;;;;;;4.13;2.33;;;;;;;;;;5073380;28;20257;-51
2023/06/28 00:45:11;;;;;;;4.23;2.40;;;;;;;;;;5073130;28;20295;-51
2023/06/28 00:47:39;;;;;;;5.20;2.40;;;;;;;;;;5073171;28;20260;-51
2023/06/28 00:50:06;;;;;;;6.10;2.83;;;;;;;;;;5073573;28;20242;-49
2023/06/28 00:52:32;;;;;;;7.53;3.07;;;;;;;;;;5071948;28;20196;-50
2023/06/28 00:54:59;;;;;;;3.97;2.50;;;;;;;;;;5072877;28;20204;-52
2023/06/28 00:57:25;;;;;;;5.97;3.10;;;;;;;;;;5073105;28;20195;-51
2023/06/28 00:59:52;;;;;;;4.90;2.63;;;;;;;;;;5072700;28;20662;-52
2023/06/28 01:02:19;;;;;;;6.47;2.97;;;;;;;;;;5073040;28;20290;-51
2023/06/28 01:04:46;;;;;;;6.13;2.60;;;;;;;;;;5072806;28;20231;-52
2023/06/28 01:07:13;;;;;;;4.27;2.50;;;;;;;;;;5072868;28;20231;-52
2023/06/28 01:09:40;;;;;;;4.93;2.20;;;;;;;;;;5072826;28;20199;-51
2023/06/28 01:12:07;;;;;;;7.13;2.53;;;;;;;;;;5072811;28;20341;-50
2023/06/28 01:14:33;;;;;;;5.20;3.10;;;;;;;;;;5072611;28;20196;-50
2023/06/28 01:16:59;;;;;;;6.87;2.73;;;;;;;;;;5072564;28;20199;-51
2023/06/28 01:19:25;;;;;;;4.50;2.63;;;;;;;;;;5072699;28;20199;-50
2023/06/28 01:21:54;;;;;;;5.70;2.50;;;;;;;;;;5072591;28;20226;-50
2023/06/28 01:24:22;;;;;;;7.23;2.60;;;;;;;;;;5072662;28;20295;-51
2023/06/28 01:26:52;;;;;;;6.77;3.13;;;;;;;;;;5072184;28;20231;-51
2023/06/28 01:29:21;;;;;;;5.90;2.67;;;;;;;;;;5072466;28;20216;-51
2023/06/28 01:31:47;;;;;;;4.57;2.70;;;;;;;;;;5072282;28;20211;-51
2023/06/28 01:34:13;;;;;;;4.33;2.27;;;;;;;;;;5072405;28;20218;-52
2023/06/28 01:36:39;;;;;;;5.90;2.70;;;;;;;;;;5072248;28;20192;-50
2023/06/28 01:39:05;;;;;;;5.30;3.10;;;;;;;;;;5072172;28;20295;-54
2023/06/28 01:41:33;;;;;;;8.17;3.00;;;;;;;;;;5072336;28;20571;-51
2023/06/28 01:43:59;;;;;;;4.13;2.60;;;;;;;;;;5072114;28;20203;-51
2023/06/28 01:46:25;;;;;;;6.63;3.10;;;;;;;;;;5072065;28;20281;-50
2023/06/28 01:48:51;;;;;;;6.93;3.30;;;;;;;;;;5071942;28;20195;-51
2023/06/28 01:51:17;;;;;;;7.50;3.20;;;;;;;;;;5072261;28;20195;-52
2023/06/28 01:53:43;;;;;;;5.07;3.07;;;;;;;;;;5071898;28;20191;-54
2023/06/28 01:56:10;;;;;;;6.33;3.17;;;;;;;;;;5071777;28;20245;-52
2023/06/28 01:58:37;;;;;;;5.67;2.93;;;;;;;;;;5071887;28;20230;-51
2023/06/28 02:01:03;;;;;;;4.77;2.70;;;;;;;;;;5071702;28;20199;-52
2023/06/28 02:03:29;;;;;;;5.63;3.10;;;;;;;;;;5071571;28;20552;-52
2023/06/28 02:05:55;;;;;;;6.87;3.10;;;;;;;;;;5071429;28;20222;-52
2023/06/28 02:08:21;;;;;;;4.70;3.17;;;;;;;;;;5071668;28;20200;-53
2023/06/28 02:10:47;;;;;;;5.20;3.53;;;;;;;;;;5071468;28;20733;-51
2023/06/28 02:13:13;;;;;;;4.13;3.33;;;;;;;;;;5071533;28;20195;-52
2023/06/28 02:15:41;;;;;;;6.37;3.37;;;;;;;;;;5071421;28;20701;-51
2023/06/28 02:18:07;;;;;;;4.37;3.00;;;;;;;;;;5071533;28;20208;-51
2023/06/28 02:20:33;;;;;;;5.70;3.37;;;;;;;;;;5071510;28;20199;-52
2023/06/28 02:22:59;;;;;;;3.77;2.87;;;;;;;;;;5071317;28;20680;-51
2023/06/28 02:25:25;;;;;;;4.33;2.53;;;;;;;;;;5071431;28;20195;-51
2023/06/28 02:27:52;;;;;;;5.30;2.90;;;;;;;;;;5071268;28;20196;-51
2023/06/28 02:30:18;;;;;;;4.90;2.77;;;;;;;;;;5071274;28;20791;-49
2023/06/28 02:32:45;;;;;;;4.03;2.77;;;;;;;;;;5071180;28;20317;-50
2023/06/28 02:35:12;;;;;;;5.17;3.40;;;;;;;;;;5071302;28;20208;-51
2023/06/28 02:37:38;;;;;;;5.17;3.90;;;;;;;;;;5071235;28;20200;-49
2023/06/28 02:40:05;;;;;;;6.93;3.43;;;;;;;;;;5071030;28;20700;-49
2023/06/28 02:42:31;;;;;;;7.80;3.73;;;;;;;;;;5070939;28;20557;-50
2023/06/28 02:44:57;;;;;;;6.27;3.20;;;;;;;;;;5070853;28;20199;-50
2023/06/28 02:47:23;;;;;;;4.53;3.27;;;;;;;;;;5071128;28;20231;-50
2023/06/28 02:49:50;;;;;;;3.27;2.77;;;;;;;;;;5070904;28;20229;-52
2023/06/28 02:52:16;;;;;;;6.70;3.23;;;;;;;;;;5071030;28;20200;-52
2023/06/28 02:54:43;;;;;;;5.20;3.10;;;;;;;;;;5071345;28;20195;-51
2023/06/28 02:57:10;;;;;;;4.37;3.20;;;;;;;;;;5070859;28;20191;-51
2023/06/28 02:59:36;;;;;;;3.87;3.50;;;;;;;;;;5070795;28;20278;-50
2023/06/28 03:02:03;;;;;;;4.70;3.27;;;;;;;;;;5070624;28;20203;-52
2023/06/28 03:04:29;;;;;;;6.73;3.50;;;;;;;;;;5070375;28;20349;-50
2023/06/28 03:06:56;;;;;;;3.83;3.10;;;;;;;;;;5069652;28;20227;-51
2023/06/28 03:09:22;;;;;;;3.97;3.53;;;;;;;;;;5070874;28;20203;-49
2023/06/28 03:11:48;;;;;;;6.67;3.80;;;;;;;;;;5070694;28;20253;-51
2023/06/28 03:14:14;;;;;;;6.00;3.50;;;;;;;;;;5070696;28;20199;-50
2023/06/28 03:16:40;;;;;;;5.23;3.87;;;;;;;;;;5072163;28;20223;-51
2023/06/28 03:19:08;;;;;;;8.40;3.77;;;;;;;;;;5074820;28;20196;-51
2023/06/28 03:21:34;;;;;;;6.83;4.70;;;;;;;;;;5074899;28;20205;-51
2023/06/28 03:24:01;;;;;;;6.70;4.20;;;;;;;;;;5074611;28;20302;-52
2023/06/28 03:26:29;;;;;;;4.50;3.70;;;;;;;;;;5074594;28;20243;-51
2023/06/28 03:28:57;;;;;;;6.93;4.87;;;;;;;;;;5074499;28;20282;-52
2023/06/28 03:31:24;;;;;;;6.40;4.43;;;;;;;;;;5074682;28;20674;-51
2023/06/28 03:33:49;;;;;;;7.97;4.90;;;;;;;;;;5074565;28;20205;-52
2023/06/28 03:36:15;;;;;;;7.60;4.50;;;;;;;;;;5074693;28;20191;-51
2023/06/28 03:38:41;;;;;;;7.50;4.67;;;;;;;;;;5074525;28;20192;-50
2023/06/28 03:41:09;;;;;;;5.13;4.60;;;;;;;;;;5074331;28;20681;-52
2023/06/28 03:43:35;;;;;;;5.70;4.70;;;;;;;;;;5074407;28;20199;-51
2023/06/28 03:46:01;;;;;;;9.23;3.97;;;;;;;;;;5074111;28;20235;-51
2023/06/28 03:48:27;;;;;;;4.67;4.27;;;;;;;;;;5074423;28;20219;-52
2023/06/28 03:50:53;;;;;;;6.70;4.57;;;;;;;;;;5074282;28;20198;-51
2023/06/28 03:53:18;;;;;;;6.13;4.80;;;;;;;;;;5072957;28;20261;-52
2023/06/28 03:55:44;;;;;;;7.13;4.73;;;;;;;;;;5074111;28;20734;-50
2023/06/28 03:58:12;;;;;;;5.53;5.03;;;;;;;;;;5074043;28;20264;-51
2023/06/28 04:00:38;;;;;;;7.93;5.63;;;;;;;;;;5074101;28;20195;-51
2023/06/28 04:03:05;;;;;;;6.00;4.67;;;;;;;;;;5073910;28;20275;-51
2023/06/28 04:05:31;;;;;;;6.47;5.23;;;;;;;;;;5073872;28;20258;-52
2023/06/28 04:07:58;;;;;;;9.50;5.90;;;;;;;;;;5073867;28;20199;-51
2023/06/28 04:10:24;;;;;;;6.70;5.10;;;;;;;;;;5074113;28;20196;-53
2023/06/28 04:12:50;;;;;;;8.70;5.70;;;;;;;;;;5073787;28;20567;-51
2023/06/28 04:15:17;;;;;;;7.67;5.33;;;;;;;;;;5073786;28;20196;-52
2023/06/28 04:17:43;;;;;;;7.50;5.03;;;;;;;;;;5073686;28;20579;-50
2023/06/28 04:20:10;;;;;;;9.70;5.80;;;;;;;;;;5073615;28;20723;-52
2023/06/28 04:22:36;;;;;;;7.30;5.23;;;;;;;;;;5073716;28;20191;-51
2023/06/28 04:25:03;;;;;;;6.03;5.43;;;;;;;;;;5073559;28;20194;-52
2023/06/28 04:27:28;;;;;;;9.20;6.17;;;;;;;;;;5073158;28;20254;-52
2023/06/28 04:29:54;;;;;;;7.80;6.70;;;;;;;;;;5073448;28;20200;-51
2023/06/28 04:32:23;;;;;;;8.37;5.53;;;;;;;;;;5073668;28;20202;-52
2023/06/28 04:34:49;;;;;;;8.90;6.27;;;;;;;;;;5073332;28;20208;-52
2023/06/28 04:37:15;;;;;;;6.90;4.93;;;;;;;;;;5073557;28;20249;-53
2023/06/28 04:39:43;;;;;;;9.03;5.73;;;;;;;;;;5073417;28;20187;-52
2023/06/28 04:42:09;;;;;;;8.80;5.67;;;;;;;;;;5073280;28;20196;-52
2023/06/28 04:44:36;;;;;;;11.47;6.20;;;;;;;;;;5073352;28;20241;-52
2023/06/28 04:47:02;;;;;;;5.73;5.10;;;;;;;;;;5072844;28;20718;-52
2023/06/28 04:49:30;;;;;;;6.77;5.17;;;;;;;;;;5073043;28;20666;-52
2023/06/28 04:51:56;;;;;;;7.40;5.50;;;;;;;;;;5073123;28;20564;-50
2023/06/28 04:54:22;;;;;;;7.97;5.33;;;;;;;;;;5073320;28;20196;-51
2023/06/28 04:56:48;;;;;;;7.70;5.83;;;;;;;;;;5073189;28;20265;-51
2023/06/28 04:59:14;;;;;;;7.83;5.23;;;;;;;;;;5073264;28;20662;-51
2023/06/28 05:01:41;;;;;;;8.07;5.03;;;;;;;;;;5073064;28;20236;-50
2023/06/28 05:04:07;;;;;;;8.53;5.03;;;;;;;;;;5072718;28;20202;-52
2023/06/28 05:06:35;;;;;;;6.00;4.53;;;;;;;;;;5072805;28;20233;-52
2023/06/28 05:09:01;;;;;;;8.97;5.40;;;;;;;;;;5072890;28;20405;-52
2023/06/28 05:11:27;;;;;;;8.57;5.17;;;;;;;;;;5072591;28;20200;-51
2023/06/28 05:13:53;;;;;;;6.50;4.80;;;;;;;;;;5072307;28;20291;-50
2023/06/28 05:16:19;;;;;;;7.50;5.13;;;;;;;;;;5072481;28;20266;-51
2023/06/28 05:18:46;;;;;;;8.10;4.73;;;;;;;;;;5072369;28;20596;-51
2023/06/28 05:21:12;;;;;;;9.37;5.57;;;;;;;;;;5072566;28;20192;-52
2023/06/28 05:23:39;;;;;;;8.73;4.23;;;;;;;;;;5072267;28;20650;-51
2023/06/28 05:26:05;;;;;;;10.80;4.37;;;;;;;;;;5071981;28;20267;-51
2023/06/28 05:28:31;;;;;;;7.43;4.67;;;;;;;;;;5072302;28;20661;-51
2023/06/28 05:30:57;;;;;;;8.50;4.40;;;;;;;;;;5072232;28;20242;-52
2023/06/28 05:33:23;;;;;;;7.83;4.43;;;;;;;;;;5072177;28;20203;-52
2023/06/28 05:35:49;;;;;;;7.87;3.80;;;;;;;;;;5072149;28;20199;-52
2023/06/28 05:38:15;;;;;;;6.73;3.50;;;;;;;;;;5071910;28;20215;-52
2023/06/28 05:40:42;;;;;;;12.80;4.57;;;;;;;;;;5071714;28;20231;-51
2023/06/28 05:43:08;;;;;;;6.20;4.07;;;;;;;;;;5072154;28;20199;-52
2023/06/28 05:45:34;;;;;;;6.93;4.10;;;;;;;;;;5072000;28;20200;-52
2023/06/28 05:48:00;;;;;;;6.77;3.90;;;;;;;;;;5071991;28;20257;-51
2023/06/28 05:50:27;;;;;;;5.90;3.43;;;;;;;;;;5072103;28;20191;-52
2023/06/28 05:52:53;;;;;;;5.90;3.40;;;;;;;;;;5071858;28;20204;-52
2023/06/28 05:55:19;;;;;;;8.53;3.80;;;;;;;;;;5071986;28;20556;-53
2023/06/28 05:57:46;;;;;;;7.97;4.10;;;;;;;;;;5071705;28;20203;-53
2023/06/28 06:00:13;;;;;;;4.70;3.53;;;;;;;;;;5071636;28;20674;-53
2023/06/28 06:02:39;;;;;;;6.97;4.33;;;;;;;;;;5071636;28;20574;-53
2023/06/28 06:05:06;;;;;;;5.50;3.47;;;;;;;;;;5071538;28;20218;-52
2023/06/28 06:07:34;;;;;;;6.83;4.07;;;;;;;;;;5071483;28;20223;-52
2023/06/28 06:10:00;;;;;;;5.93;4.10;;;;;;;;;;5071296;28;20192;-52
2023/06/28 06:12:26;;;;;;;6.30;3.57;;;;;;;;;;5071557;28;20811;-53
2023/06/28 06:14:56;;;;;;;12.73;4.53;;;;;;;;;;5071682;28;20262;-52
2023/06/28 06:17:22;;;;;;;9.47;4.20;;;;;;;;;;5071130;28;20200;-53
2023/06/28 06:19:48;;;;;;;7.90;4.27;;;;;;;;;;5071225;28;20257;-53
2023/06/28 06:22:14;;;;;;;6.80;3.87;;;;;;;;;;5071196;28;20689;-53
2023/06/28 06:24:40;;;;;;;10.80;4.57;;;;;;;;;;5071172;28;20195;-52
2023/06/28 06:27:07;;;;;;;6.77;3.37;;;;;;;;;;5070950;28;20265;-53
2023/06/28 06:29:33;;;;;;;5.47;3.27;;;;;;;;;;5071328;28;20203;-52
2023/06/28 06:32:00;;;;;;;7.23;3.83;;;;;;;;;;5071240;28;20200;-53
2023/06/28 06:34:26;;;;;;;7.80;3.60;;;;;;;;;;5071284;28;20199;-52
2023/06/28 06:36:54;;;;;;;5.47;3.23;;;;;;;;;;5071107;28;20537;-52
2023/06/28 06:39:20;;;;;;;6.37;2.60;;;;;;;;;;5071195;28;20211;-52
2023/06/28 06:41:46;;;;;;;9.43;3.20;;;;;;;;;;5071125;28;20189;-52
2023/06/28 06:44:12;;;;;;;8.47;2.97;;;;;;;;;;5071149;28;20808;-52
2023/06/28 06:46:38;;;;;;;4.50;2.53;;;;;;;;;;5071024;28;20216;-52
2023/06/28 06:49:06;;;;;;;7.00;3.17;;;;;;;;;;5070844;28;20668;-51
2023/06/28 06:51:31;;;;;;;7.77;2.70;;;;;;;;;;5070950;28;20280;-52
2023/06/28 06:53:57;;;;;;;7.37;2.77;;;;;;;;;;5071129;28;20692;-52
2023/06/28 06:56:24;;;;;;;6.63;2.60;;;;;;;;;;5071138;28;20201;-52
2023/06/28 06:58:50;;;;;;;5.40;2.50;;;;;;;;;;5070827;28;20208;-53
2023/06/28 07:01:16;;;;;;;7.03;2.20;;;;;;;;;;5070759;28;20195;-53
2023/06/28 07:03:42;;;;;;;3.63;2.10;;;;;;;;;;5070909;28;20195;-53
2023/06/28 07:06:09;;;;;;;5.03;2.17;;;;;;;;;;5070863;28;20579;-52
2023/06/28 07:08:35;;;;;;;7.77;2.30;;;;;;;;;;5070873;28;20203;-53
2023/06/28 07:11:01;;;;;;;4.67;2.30;;;;;;;;;;5070673;28;20242;-53
2023/06/28 07:13:27;;;;;;;5.77;2.40;;;;;;;;;;5070648;28;20608;-53
2023/06/28 07:15:53;;;;;;;6.43;2.10;;;;;;;;;;5070610;28;20195;-53
2023/06/28 07:18:20;;;;;;;6.73;2.20;;;;;;;;;;5070677;28;20191;-52
2023/06/28 07:20:46;;;;;;;5.30;2.17;;;;;;;;;;5070608;28;20210;-53
2023/06/28 07:23:13;;;;;;;5.10;2.50;;;;;;;;;;5070601;28;20230;-53
2023/06/28 07:25:39;;;;;;;6.53;2.50;;;;;;;;;;5070530;28;20225;-52
2023/06/28 07:28:05;;;;;;;6.03;2.33;;;;;;;;;;5070557;28;20199;-53
2023/06/28 07:30:50;;;;;;;3.73;1.77;;;;;;;;;;5070520;28;20199;-53
2023/06/28 07:33:16;;;;;;;6.27;2.50;;;;;;;;;;5070618;28;20222;-51
2023/06/28 07:35:42;;;;;;;5.10;2.07;;;;;;;;;;5070607;28;20620;-52
2023/06/28 07:38:08;;;;;;;4.57;1.80;;;;;;;;;;5070474;28;20261;-52
2023/06/28 07:40:35;;;;;;;3.80;1.70;;;;;;;;;;5070474;28;20658;-52
2023/06/28 07:43:02;;;;;;;4.27;1.70;;;;;;;;;;5070301;28;20584;-52
2023/06/28 07:45:28;;;;;;;4.43;1.67;;;;;;;;;;5070524;28;20206;-51
2023/06/28 07:47:54;;;;;;;5.10;1.93;;;;;;;;;;5070308;28;20227;-53
2023/06/28 07:50:22;;;;;;;5.80;1.73;;;;;;;;;;5070320;28;20728;-53
2023/06/28 07:52:48;;;;;;;6.47;1.93;;;;;;;;;;5070304;28;20576;-53
2023/06/28 07:55:14;;;;;;;6.40;1.90;;;;;;;;;;5070336;28;20740;-52
2023/06/28 07:57:41;;;;;;;5.17;1.73;;;;;;;;;;5070427;28;20200;-53
2023/06/28 08:00:10;;;;;;;4.37;1.93;;;;;;;;;;5069992;28;20287;-53
2023/06/28 08:02:36;;;;;;;3.67;1.90;;;;;;;;;;5071807;28;20276;-53
2023/06/28 08:05:01;;;;;;;6.00;2.40;;;;;;;;;;5073925;28;20223;-53
2023/06/28 08:07:28;;;;;;;4.20;1.97;;;;;;;;;;5073944;28;20783;-53
2023/06/28 08:09:54;;;;;;;3.87;1.70;;;;;;;;;;5073821;28;20196;-53
2023/06/28 08:12:20;;;;;;;4.67;1.77;;;;;;;;;;5074002;28;20213;-52
2023/06/28 08:14:47;;;;;;;5.00;2.07;;;;;;;;;;5073733;28;20200;-52
2023/06/28 08:17:13;;;;;;;3.63;1.80;;;;;;;;;;5073707;28;20204;-52
2023/06/28 08:19:39;;;;;;;4.20;1.70;;;;;;;;;;5073607;28;20205;-53
2023/06/28 08:22:05;;;;;;;3.43;1.77;;;;;;;;;;5073669;28;20417;-51
2023/06/28 08:24:31;;;;;;;4.07;1.70;;;;;;;;;;5073613;28;20685;-53
2023/06/28 08:26:57;;;;;;;4.63;2.00;;;;;;;;;;5073331;28;20249;-53
2023/06/28 08:29:23;;;;;;;3.97;2.00;;;;;;;;;;5073533;28;20227;-52
2023/06/28 08:31:50;;;;;;;3.90;1.80;;;;;;;;;;5073493;28;20659;-52
2023/06/28 08:34:16;;;;;;;5.43;1.90;;;;;;;;;;5073526;28;20200;-54
2023/06/28 08:36:42;;;;;;;3.73;1.83;;;;;;;;;;5073477;28;20199;-52
2023/06/28 08:39:08;;;;;;;3.07;1.70;;;;;;;;;;5073402;28;20196;-49
2023/06/28 08:41:35;;;;;;;3.77;2.00;;;;;;;;;;5073409;28;20200;-53
2023/06/28 08:44:02;;;;;;;4.03;2.07;;;;;;;;;;5073050;28;20199;-52
2023/06/28 08:46:29;;;;;;;4.57;1.80;;;;;;;;;;5073395;28;20232;-53
2023/06/28 08:48:56;;;;;;;5.37;2.00;;;;;;;;;;5073139;28;20196;-54
2023/06/28 08:51:23;;;;;;;5.80;2.03;;;;;;;;;;5073228;28;20204;-52
2023/06/28 08:53:49;;;;;;;5.73;2.00;;;;;;;;;;5073164;28;20200;-53
2023/06/28 08:56:18;;;;;;;4.13;2.00;;;;;;;;;;5073031;28;20398;-53
2023/06/28 08:58:44;;;;;;;3.47;2.00;;;;;;;;;;5073104;28;20192;-54
2023/06/28 09:01:10;;;;;;;4.13;2.10;;;;;;;;;;5072979;28;20636;-51
2023/06/28 09:03:40;;;;;;;3.80;2.20;;;;;;;;;;5072868;28;20192;-54
2023/06/28 09:06:08;;;;;;;3.23;1.73;;;;;;;;;;5072682;28;20224;-54
2023/06/28 09:08:34;;;;;;;2.57;1.73;;;;;;;;;;5072861;28;20201;-53
2023/06/28 09:11:01;;;;;;;4.93;1.80;;;;;;;;;;5073019;28;20206;-53
2023/06/28 09:13:27;;;;;;;2.60;1.40;;;;;;;;;;5072261;28;20201;-53
2023/06/28 09:15:54;;;;;;;4.70;2.27;;;;;;;;;;5072644;28;20294;-54
2023/06/28 09:18:20;;;;;;;2.87;1.87;;;;;;;;;;5072608;28;20287;-54
2023/06/28 09:20:49;;;;;;;5.20;2.10;;;;;;;;;;5071552;28;20281;-53
2023/06/28 09:23:21;;;;;;;4.13;2.00;;;;;;;;;;5070872;28;20219;-53
2023/06/28 09:25:49;;;;;;;5.10;1.90;;;;;;;;;;5071984;28;20280;-52
2023/06/28 09:28:15;;;;;;;2.10;1.60;;;;;;;;;;5072110;28;20211;-53
2023/06/28 09:30:41;;;;;;;3.13;1.53;;;;;;;;;;5072301;28;20221;-52
2023/06/28 09:33:07;;;;;;;3.07;1.80;;;;;;;;;;5072302;28;20257;-52
2023/06/28 09:35:36;;;;;;;3.30;1.93;;;;;;;;;;5072048;28;20213;-54
2023/06/28 09:38:07;;;;;;;5.83;1.80;;;;;;;;;;5071956;28;20208;-53
2023/06/28 09:40:34;;;;;;;3.50;1.90;;;;;;;;;;5072286;28;20201;-54
2023/06/28 09:43:04;;;;;;;4.53;2.07;;;;;;;;;;5072285;28;20197;-53
2023/06/28 09:45:31;;;;;;;4.07;2.00;;;;;;;;;;5071978;28;20225;-54
2023/06/28 09:47:58;;;;;;;3.17;1.70;;;;;;;;;;5071692;28;20233;-53
2023/06/28 09:50:37;;;;;;;4.93;2.00;;;;;;;;;;5071669;28;20560;-54
2023/06/28 09:53:03;;;;;;;4.10;1.70;;;;;;;;;;5070036;28;20202;-52
2023/06/28 09:55:29;;;;;;;3.80;1.77;;;;;;;;;;5072201;28;20267;-51
2023/06/28 09:57:57;;;;;;;4.90;1.80;;;;;;;;;;5072031;28;20665;-53
2023/06/28 10:00:25;;;;;;;3.07;1.97;;;;;;;;;;5072154;28;20213;-53
2023/06/28 10:02:51;;;;;;;1.93;1.40;;;;;;;;;;5070637;28;20209;-54
2023/06/28 10:05:17;;;;;;;3.50;1.50;;;;;;;;;;5071926;28;20222;-54
2023/06/28 10:07:43;;;;;;;4.10;1.67;;;;;;;;;;5071868;28;20284;-53
2023/06/28 10:10:10;;;;;;;3.07;1.57;;;;;;;;;;5071856;28;20746;-54
2023/06/28 10:12:37;;;;;;;2.50;1.40;;;;;;;;;;5071844;28;20192;-53
2023/06/28 10:15:10;;;;;;;2.30;1.60;;;;;;;;;;5071678;28;20199;-53
2023/06/28 10:17:36;;;;;;;3.03;1.70;;;;;;;;;;5071857;28;20205;-53
2023/06/28 10:20:04;;;;;;;4.17;1.90;;;;;;;;;;5071499;28;20204;-53
2023/06/28 10:22:30;;;;;;;3.63;1.53;;;;;;;;;;5071734;28;20205;-53
2023/06/28 10:24:57;;;;;;;2.83;1.33;;;;;;;;;;5071266;28;20206;-53
2023/06/28 10:27:23;;;;;;;3.13;1.40;;;;;;;;;;5071302;28;20761;-53
2023/06/28 10:29:50;;;;;;;2.00;1.40;;;;;;;;;;5071678;28;20192;-53
2023/06/28 10:32:17;;;;;;;4.77;1.53;;;;;;;;;;5071437;28;20201;-53
2023/06/28 10:34:46;;;;;;;2.63;1.60;;;;;;;;;;5071526;28;20570;-53
2023/06/28 10:37:12;;;;;;;3.20;1.80;;;;;;;;;;5068882;28;20279;-52
2023/06/28 10:39:39;;;;;;;1.63;1.47;;;;;;;;;;5070860;28;20200;-55
2023/06/28 10:42:06;;;;;;;4.67;1.60;;;;;;;;;;5070839;28;20203;-52
2023/06/28 10:44:33;;;;;;;1.70;1.47;;;;;;;;;;5070855;28;20245;-52
2023/06/28 10:47:08;;;;;;;2.37;1.40;;;;;;;;;;5070769;28;20227;-53
2023/06/28 10:49:35;;;;;;;2.97;1.63;;;;;;;;;;5070975;28;20232;-53
2023/06/28 10:52:01;;;;;;;1.53;1.43;;;;;;;;;;5070665;28;20298;-53
2023/06/28 10:54:27;;;;;;;2.53;1.60;;;;;;;;;;5070922;28;20231;-53
2023/06/28 10:56:58;;;;;;;2.27;1.60;;;;;;;;;;5070765;28;20233;-54
2023/06/28 10:59:24;;;;;;;2.73;1.80;;;;;;;;;;5070657;28;20825;-53
2023/06/28 11:01:53;;;;;;;3.50;1.70;;;;;;;;;;5070742;28;20300;-52
2023/06/28 11:04:22;;;;;;;4.43;1.80;;;;;;;;;;5070489;28;20220;-53
2023/06/28 11:06:49;;;;;;;3.57;1.77;;;;;;;;;;5070416;28;20785;-53
2023/06/28 11:09:16;;;;;;;4.87;1.90;;;;;;;;;;5070512;28;20430;-53
2023/06/28 11:11:53;;;;;;;3.90;1.90;;;;;;;;;;5070618;28;20199;-53
2023/06/28 11:14:21;;;;;;;3.17;1.70;;;;;;;;;;5068875;28;20199;-53
2023/06/28 11:16:48;;;;;;;4.17;1.60;;;;;;;;;;5070480;28;20724;-54
2023/06/28 11:19:14;;;;;;;3.27;1.80;;;;;;;;;;5070398;28;20697;-52
2023/06/28 11:21:40;;;;;;;2.00;1.50;;;;;;;;;;5070505;28;20201;-54
2023/06/28 11:24:08;;;;;;;3.33;1.50;;;;;;;;;;5070345;28;20254;-53
2023/06/28 11:26:35;;;;;;;2.43;1.50;;;;;;;;;;5070360;28;20240;-52
2023/06/28 11:29:01;;;;;;;2.57;1.87;;;;;;;;;;5070200;28;20202;-52
2023/06/28 11:31:38;;;;;;;2.83;1.67;;;;;;;;;;5070406;28;20193;-52
2023/06/28 11:34:04;;;;;;;2.90;1.57;;;;;;;;;;5070093;28;20215;-53
2023/06/28 11:36:31;;;;;;;2.90;1.80;;;;;;;;;;5070350;28;20203;-53
2023/06/28 11:38:58;;;;;;;3.17;1.53;;;;;;;;;;5074106;28;20239;-53
2023/06/28 11:41:25;;;;;;;3.60;1.77;;;;;;;;;;5074617;28;20200;-53
2023/06/28 11:43:51;;;;;;;4.67;1.70;;;;;;;;;;5070069;28;20241;-53
2023/06/28 11:46:18;;;;;;;3.47;1.60;;;;;;;;;;5063985;28;20201;-53
2023/06/28 11:48:44;;;;;;;4.43;1.90;;;;;;;;;;5063003;28;20282;-53
2023/06/28 11:51:12;;;;;;;2.70;1.67;;;;;;;;;;5053922;28;20283;-53
2023/06/28 11:53:39;;;;;;;4.03;1.80;;;;;;;;;;5054056;28;20216;-53
2023/06/28 11:56:05;;;;;;;2.27;1.70;;;;;;;;;;5054197;28;20561;-53
2023/06/28 11:58:33;;;;;;;3.73;1.63;;;;;;;;;;5054354;28;20210;-53
2023/06/28 12:00:59;;;;;;;3.93;1.70;;;;;;;;;;5054347;28;20196;-53
2023/06/28 12:03:35;;;;;;;3.07;1.87;;;;;;;;;;5054483;28;20530;-53
2023/06/28 12:06:01;;;;;;;2.50;1.80;;;;;;;;;;5053936;28;20219;-52
2023/06/28 12:08:32;;;;;;;3.60;1.80;;;;;;;;;;5054361;28;20200;-53
2023/06/28 12:10:58;;;;;;;3.47;2.20;;;;;;;;;;5053949;28;20214;-53
2023/06/28 12:13:24;;;;;;;3.17;1.60;;;;;;;;;;5054162;28;20254;-52
2023/06/28 12:15:52;;;;;;;3.63;1.80;;;;;;;;;;5054183;28;20200;-52
2023/06/28 12:18:18;;;;;;;1.80;1.40;;;;;;;;;;5053917;28;20212;-53
2023/06/28 12:20:44;;;;;;;4.20;2.03;;;;;;;;;;5053958;28;20309;-54
2023/06/28 12:23:14;;;;;;;2.90;1.40;;;;;;;;;;5053876;28;20670;-53
2023/06/28 12:25:43;;;;;;;3.80;1.87;;;;;;;;;;5053879;28;20220;-51
2023/06/28 12:28:12;;;;;;;3.07;1.50;;;;;;;;;;5053622;28;20709;-53
2023/06/28 12:30:38;;;;;;;2.20;1.50;;;;;;;;;;5053964;28;20202;-52
2023/06/28 12:33:07;;;;;;;2.87;1.77;;;;;;;;;;5053758;28;20256;-52
2023/06/28 12:35:33;;;;;;;3.00;1.60;;;;;;;;;;5053842;28;20211;-52
2023/06/28 12:38:02;;;;;;;3.87;1.70;;;;;;;;;;5053579;28;20244;-53
2023/06/28 12:40:29;;;;;;;2.47;1.60;;;;;;;;;;5053696;28;20268;-53
2023/06/28 12:43:08;;;;;;;3.27;1.83;;;;;;;;;;5053566;28;20199;-52
2023/06/28 12:45:34;;;;;;;4.93;1.63;;;;;;;;;;5053569;28;20200;-52
2023/06/28 12:48:00;;;;;;;2.23;1.50;;;;;;;;;;5053300;28;20232;-53
2023/06/28 12:50:27;;;;;;;3.27;1.40;;;;;;;;;;5053428;28;20282;-53
2023/06/28 12:52:53;;;;;;;2.80;1.53;;;;;;;;;;5053295;28;20546;-52
2023/06/28 12:55:19;;;;;;;3.07;1.63;;;;;;;;;;5053220;28;20203;-52
2023/06/28 12:57:45;;;;;;;2.87;1.40;;;;;;;;;;5053200;28;20250;-52
2023/06/28 13:00:12;;;;;;;2.93;1.47;;;;;;;;;;5053235;28;20200;-52
2023/06/28 13:02:39;;;;;;;3.47;1.60;;;;;;;;;;5053259;28;20223;-51
2023/06/28 13:05:05;;;;;;;3.57;1.73;;;;;;;;;;5053087;28;20572;-52
2023/06/28 13:07:33;;;;;;;2.97;1.67;;;;;;;;;;5053209;28;20322;-52
2023/06/28 13:09:59;;;;;;;2.90;1.80;;;;;;;;;;5052998;28;20223;-53
2023/06/28 13:12:25;;;;;;;2.23;1.47;;;;;;;;;;5053117;28;20208;-55
2023/06/28 13:14:51;;;;;;;2.47;1.67;;;;;;;;;;5052963;28;20211;-59
2023/06/28 13:17:17;;;;;;;3.87;1.60;;;;;;;;;;5052586;28;20188;-51
2023/06/28 13:19:43;;;;;;;3.47;1.70;;;;;;;;;;5052447;28;20565;-53
2023/06/28 13:22:09;;;;;;;2.97;1.50;;;;;;;;;;5052609;28;20206;-52
2023/06/28 13:24:36;;;;;;;1.60;1.33;;;;;;;;;;5052616;28;20200;-51
2023/06/28 13:27:02;;;;;;;3.53;1.43;;;;;;;;;;5052295;28;20239;-51
2023/06/28 13:29:28;;;;;;;2.37;1.50;;;;;;;;;;5052619;28;20639;-51
2023/06/28 13:31:54;;;;;;;3.13;1.63;;;;;;;;;;5052659;28;20200;-51
2023/06/28 13:34:20;;;;;;;3.67;2.03;;;;;;;;;;5052670;28;20206;-52
2023/06/28 13:36:47;;;;;;;4.93;1.57;;;;;;;;;;5052670;28;20218;-53
2023/06/28 13:39:13;;;;;;;2.60;1.90;;;;;;;;;;5052528;28;20227;-52
2023/06/28 13:41:43;;;;;;;2.27;1.43;;;;;;;;;;5052593;28;20200;-52
2023/06/28 13:44:09;;;;;;;2.70;1.57;;;;;;;;;;5052391;28;20551;-52
2023/06/28 13:46:35;;;;;;;1.97;1.40;;;;;;;;;;5052528;28;20463;-52
2023/06/28 13:49:01;;;;;;;2.50;1.37;;;;;;;;;;5052275;28;20298;-52
2023/06/28 13:51:30;;;;;;;2.73;1.50;;;;;;;;;;5052322;28;20294;-51
2023/06/28 13:53:56;;;;;;;5.13;1.60;;;;;;;;;;5046609;28;20203;-53
2023/06/28 13:56:22;;;;;;;2.63;1.50;;;;;;;;;;5051099;28;20229;-52
2023/06/28 13:58:50;;;;;;;3.13;1.47;;;;;;;;;;5050888;28;20195;-52
2023/06/28 14:01:16;;;;;;;2.23;1.70;;;;;;;;;;5050039;28;20205;-51
2023/06/28 14:03:42;;;;;;;5.30;1.50;;;;;;;;;;5050639;28;20203;-52
2023/06/28 14:06:08;;;;;;;2.10;1.60;;;;;;;;;;5050553;28;20218;-52
2023/06/28 14:08:34;;;;;;;2.20;1.53;;;;;;;;;;5050447;28;20235;-52
2023/06/28 14:11:00;;;;;;;3.27;1.50;;;;;;;;;;5050905;28;20196;-52
2023/06/28 14:13:26;;;;;;;6.27;1.57;;;;;;;;;;5050694;28;20201;-52
2023/06/28 14:15:53;;;;;;;3.07;1.57;;;;;;;;;;5050738;28;20204;-52
2023/06/28 14:18:19;;;;;;;2.40;1.80;;;;;;;;;;5050518;28;20587;-51
2023/06/28 14:20:45;;;;;;;3.17;1.73;;;;;;;;;;5050403;28;20201;-50
2023/06/28 14:23:11;;;;;;;3.37;1.80;;;;;;;;;;5050353;28;20550;-51
2023/06/28 14:25:37;;;;;;;7.23;2.20;;;;;;;;;;5050042;28;20209;-51
2023/06/28 14:28:03;;;;;;;5.27;1.90;;;;;;;;;;5050687;28;20223;-51
2023/06/28 14:30:29;;;;;;;3.73;1.40;;;;;;;;;;5051005;28;20235;-60
2023/06/28 14:32:57;;;;;;;3.20;1.53;;;;;;;;;;5050799;28;20221;-60
2023/06/28 14:35:23;;;;;;;3.13;2.07;;;;;;;;;;5050697;28;20199;-58
2023/06/28 14:37:49;;;;;;;2.17;1.43;;;;;;;;;;5050715;28;20198;-53
2023/06/28 14:40:16;;;;;;;2.60;1.77;;;;;;;;;;5050761;28;20292;-53